createdAt,value
2022-08-14T00:02:15.623Z,7.85
2022-08-14T00:04:45.463Z,8.55
2022-08-14T00:07:13.883Z,7.05
2022-08-14T00:10:02.257Z,8.65
2022-08-14T00:12:42.115Z,7.25
2022-08-14T00:15:15.337Z,6.88
2022-08-14T00:17:48.061Z,7.65
2022-08-14T00:20:30.379Z,11.48
2022-08-14T00:23:12.228Z,6.68
2022-08-14T00:25:53.858Z,8.75
2022-08-14T00:28:34.860Z,8.65
2022-08-14T00:31:04.712Z,9.77
2022-08-14T00:33:50.776Z,12.63
2022-08-14T00:36:35.277Z,8.73
2022-08-14T00:39:12.045Z,10.07
2022-08-14T00:41:39.471Z,10.30
2022-08-14T00:44:10.028Z,6.97
2022-08-14T00:46:38.632Z,9.90
2022-08-14T00:49:08.162Z,6.85
2022-08-14T00:51:44.174Z,9.73
2022-08-14T00:54:21.447Z,9.65
2022-08-14T00:56:55.504Z,8.48
2022-08-14T00:59:28.645Z,11.73
2022-08-14T01:01:58.627Z,8.15
2022-08-14T01:04:37.650Z,7.85
2022-08-14T01:07:20.623Z,9.05
2022-08-14T01:09:53.180Z,8.98
2022-08-14T01:12:27.280Z,11.23
2022-08-14T01:14:58.890Z,9.70
2022-08-14T01:17:51.787Z,8.93
2022-08-14T01:20:40.699Z,14.15
2022-08-14T01:23:16.021Z,9.25
2022-08-14T01:25:47.150Z,10.60
2022-08-14T01:28:46.958Z,11.77
2022-08-14T01:31:02.111Z,10.77
2022-08-14T01:33:30.405Z,10.60
2022-08-14T01:36:05.563Z,10.45
2022-08-14T01:38:49.104Z,12.23
2022-08-14T01:41:22.871Z,10.20
2022-08-14T01:44:01.463Z,10.15
2022-08-14T01:46:37.498Z,11.00
2022-08-14T01:49:11.346Z,9.75
2022-08-14T01:51:41.687Z,11.98
2022-08-14T01:54:21.251Z,10.27
2022-08-14T01:56:59.012Z,9.90
2022-08-14T01:59:37.515Z,11.48
2022-08-14T02:02:19.646Z,9.95
2022-08-14T02:04:55.223Z,10.88
2022-08-14T02:07:34.163Z,12.43
2022-08-14T02:10:13.136Z,12.23
2022-08-14T02:12:46.171Z,11.15
2022-08-14T02:15:21.986Z,17.55
2022-08-14T02:17:50.822Z,10.13
2022-08-14T02:20:23.334Z,11.93
2022-08-14T02:22:54.851Z,9.85
2022-08-14T02:25:23.100Z,10.20
2022-08-14T02:28:22.295Z,10.25
2022-08-14T02:30:38.280Z,15.20
2022-08-14T02:33:07.276Z,10.40
2022-08-14T02:35:40.657Z,11.85
2022-08-14T02:38:11.803Z,10.90
2022-08-14T02:40:56.135Z,12.10
2022-08-14T02:43:23.565Z,11.63
2022-08-14T02:45:50.849Z,12.40
2022-08-14T02:49:03.870Z,10.75
2022-08-14T02:51:09.119Z,11.30
2022-08-14T02:53:39.775Z,13.95
2022-08-14T02:56:30.383Z,11.68
2022-08-14T02:59:01.347Z,13.27
2022-08-14T03:01:31.102Z,12.88
2022-08-14T03:03:59.356Z,13.20
2022-08-14T03:06:35.161Z,14.10
2022-08-14T03:09:15.223Z,15.05
2022-08-14T03:11:44.726Z,13.65
2022-08-14T03:14:15.562Z,14.60
2022-08-14T03:16:45.627Z,14.35
2022-08-14T03:19:19.748Z,17.33
2022-08-14T03:21:47.259Z,14.40
2022-08-14T03:24:23.687Z,16.90
2022-08-14T03:26:57.402Z,14.77
2022-08-14T03:29:26.264Z,16.67
2022-08-14T03:31:54.721Z,15.50
2022-08-14T03:34:24.965Z,14.07
2022-08-14T03:37:51.642Z,13.90
2022-08-14T03:40:00.518Z,14.63
2022-08-14T03:42:35.668Z,15.48
2022-08-14T03:45:18.905Z,14.32
2022-08-14T03:47:58.574Z,14.68
2022-08-14T03:50:31.514Z,15.02
2022-08-14T03:53:01.950Z,15.50
2022-08-14T03:55:30.243Z,15.02
2022-08-14T03:58:00.418Z,16.35
2022-08-14T04:00:43.575Z,16.50
2022-08-14T04:03:18.079Z,16.60
2022-08-14T04:05:48.508Z,15.80
2022-08-14T04:08:23.004Z,16.33
2022-08-14T04:10:59.416Z,15.88
2022-08-14T04:13:31.713Z,16.75
2022-08-14T04:18:45.337Z,18.80
2022-08-14T04:21:14.869Z,17.25
2022-08-14T04:23:45.302Z,18.27
2022-08-14T04:26:27.188Z,18.95
2022-08-14T04:29:14.344Z,17.17
2022-08-14T04:32:57.639Z,19.30
2022-08-14T04:34:30.928Z,18.27
2022-08-14T04:37:24.502Z,18.00
2022-08-14T04:40:12.197Z,18.25
2022-08-14T04:42:58.390Z,18.75
2022-08-14T04:45:36.329Z,17.88
2022-08-14T04:48:13.676Z,18.98
2022-08-14T04:51:01.943Z,19.25
2022-08-14T04:53:34.541Z,19.20
2022-08-14T04:56:04.245Z,17.92
2022-08-14T04:58:39.022Z,19.08
2022-08-14T05:01:13.032Z,18.70
2022-08-14T05:03:47.163Z,18.58
2022-08-14T05:06:37.871Z,19.00
2022-08-14T05:09:02.082Z,19.02
2022-08-14T05:11:34.573Z,19.05
2022-08-14T05:14:34.017Z,18.30
2022-08-14T05:16:52.187Z,18.00
2022-08-14T05:19:24.964Z,17.50
2022-08-14T05:22:16.100Z,16.92
2022-08-14T05:24:51.362Z,20.30
2022-08-14T05:27:23.042Z,22.13
2022-08-14T05:29:53.610Z,20.20
2022-08-14T05:32:21.638Z,19.10
2022-08-14T05:34:50.147Z,19.40
2022-08-14T05:37:17.397Z,17.52
2022-08-14T05:39:47.414Z,18.10
2022-08-14T05:42:22.132Z,20.92
2022-08-14T05:44:55.737Z,20.85
2022-08-14T05:47:24.162Z,20.52
2022-08-14T05:52:38.467Z,19.98
2022-08-14T05:55:09.535Z,21.33
2022-08-14T05:58:00.287Z,19.95
2022-08-14T06:00:38.812Z,20.50
2022-08-14T06:03:09.234Z,18.60
2022-08-14T06:05:38.673Z,18.75
2022-08-14T06:08:36.101Z,19.58
2022-08-14T06:11:07.144Z,21.25
2022-08-14T06:13:45.077Z,19.13
2022-08-14T06:16:17.395Z,22.42
2022-08-14T06:18:48.723Z,17.95
2022-08-14T06:21:21.387Z,24.70
2022-08-14T06:23:49.842Z,17.58
2022-08-14T06:26:20.904Z,17.60
2022-08-14T06:28:52.060Z,15.48
2022-08-14T06:31:20.964Z,17.50
2022-08-14T06:35:03.055Z,14.65
2022-08-14T06:36:38.026Z,12.40
2022-08-14T06:39:10.175Z,11.38
2022-08-14T06:41:59.209Z,9.75
2022-08-14T06:44:30.890Z,10.77
2022-08-14T06:47:01.475Z,10.00
2022-08-14T06:49:30.409Z,10.52
2022-08-14T06:51:58.037Z,10.80
2022-08-14T06:54:31.764Z,8.57
2022-08-14T06:56:59.420Z,11.57
2022-08-14T06:59:27.082Z,10.93
2022-08-14T07:02:17.707Z,8.80
2022-08-14T07:05:05.539Z,12.48
2022-08-14T07:07:39.112Z,10.20
2022-08-14T07:10:07.976Z,12.48
2022-08-14T07:13:00.695Z,8.20
2022-08-14T07:15:39.879Z,8.65
2022-08-14T07:18:10.533Z,9.93
2022-08-14T07:20:38.617Z,9.60
2022-08-14T07:23:10.973Z,9.02
2022-08-14T07:25:42.185Z,9.20
2022-08-14T07:28:23.904Z,9.40
2022-08-14T07:30:57.691Z,10.10
2022-08-14T07:33:36.446Z,9.30
2022-08-14T07:36:26.438Z,11.45
2022-08-14T07:38:54.980Z,8.87
2022-08-14T07:41:23.516Z,10.07
2022-08-14T07:43:55.346Z,9.00
2022-08-14T07:46:28.470Z,8.77
2022-08-14T07:48:57.169Z,10.90
2022-08-14T07:51:26.014Z,8.88
2022-08-14T07:54:00.717Z,11.63
2022-08-14T07:56:44.214Z,8.95
2022-08-14T07:59:18.112Z,9.30
2022-08-14T08:01:48.349Z,8.07
2022-08-14T08:04:25.278Z,9.05
2022-08-14T08:06:54.987Z,10.18
2022-08-14T08:09:29.885Z,8.02
2022-08-14T08:12:05.009Z,9.38
2022-08-14T08:14:56.458Z,8.15
2022-08-14T08:17:24.776Z,8.18
2022-08-14T08:19:52.409Z,8.00
2022-08-14T08:22:21.312Z,8.25
2022-08-14T08:24:50.352Z,7.90
2022-08-14T08:27:19.919Z,7.05
2022-08-14T08:29:50.744Z,7.15
2022-08-14T08:32:18.737Z,8.10
2022-08-14T08:34:46.939Z,6.65
2022-08-14T08:37:14.846Z,8.13
2022-08-14T08:40:02.697Z,6.32
2022-08-14T08:42:38.415Z,7.60
2022-08-14T08:45:12.040Z,8.90
2022-08-14T08:47:40.654Z,7.97
2022-08-14T08:50:23.450Z,7.85
2022-08-14T08:53:06.533Z,8.52
2022-08-14T08:55:38.879Z,8.13
2022-08-14T08:58:16.041Z,9.02
2022-08-14T09:00:49.063Z,8.48
2022-08-14T09:03:20.704Z,7.45
2022-08-14T09:06:56.905Z,7.28
2022-08-14T09:08:53.798Z,6.88
2022-08-14T09:11:24.600Z,8.20
2022-08-14T09:13:53.507Z,8.23
2022-08-14T09:16:26.079Z,10.30
2022-08-14T09:18:54.880Z,7.43
2022-08-14T09:21:24.203Z,7.07
2022-08-14T09:24:28.336Z,8.75
2022-08-14T09:26:44.433Z,7.05
2022-08-14T09:29:17.926Z,7.05
2022-08-14T09:31:53.433Z,7.10
2022-08-14T09:34:28.098Z,9.15
2022-08-14T09:37:28.828Z,6.43
2022-08-14T09:40:21.288Z,8.15
2022-08-14T09:43:05.742Z,6.20
2022-08-14T09:45:53.409Z,8.20
2022-08-14T09:48:29.888Z,8.55
2022-08-14T09:54:17.692Z,9.20
2022-08-14T09:56:56.665Z,7.82
2022-08-14T09:59:27.971Z,10.48
2022-08-14T10:01:57.436Z,7.75
2022-08-14T10:04:36.074Z,6.85
2022-08-14T10:07:08.108Z,8.60
2022-08-14T10:09:57.595Z,8.88
2022-08-14T10:12:52.959Z,7.88
2022-08-14T10:15:25.050Z,7.05
2022-08-14T10:18:09.615Z,9.07
2022-08-14T10:23:27.876Z,7.03
2022-08-14T10:26:06.769Z,6.88
2022-08-14T10:29:17.840Z,9.63
2022-08-14T10:31:44.599Z,5.78
2022-08-14T10:34:14.338Z,6.68
2022-08-14T10:36:47.813Z,6.40
2022-08-14T10:39:21.746Z,5.88
2022-08-14T10:41:53.979Z,7.00
2022-08-14T10:44:29.558Z,5.63
2022-08-14T10:47:41.066Z,7.97
2022-08-14T10:50:00.882Z,6.80
2022-08-14T10:52:33.996Z,5.60
2022-08-14T10:55:16.455Z,6.78
2022-08-14T10:57:57.486Z,9.65
2022-08-14T11:00:29.943Z,5.93
2022-08-14T11:03:13.270Z,7.55
2022-08-14T11:05:55.001Z,5.38
2022-08-14T11:08:34.292Z,7.80
2022-08-14T11:11:05.399Z,6.10
2022-08-14T11:13:33.095Z,4.80
2022-08-14T11:16:03.173Z,7.13
2022-08-14T11:18:36.003Z,6.50
2022-08-14T11:21:08.312Z,5.28
2022-08-14T11:23:43.771Z,5.55
2022-08-14T11:26:14.158Z,5.38
2022-08-14T11:28:47.570Z,5.63
2022-08-14T11:31:20.199Z,6.85
2022-08-14T11:33:55.309Z,8.50
2022-08-14T11:36:35.491Z,6.35
2022-08-14T11:39:34.570Z,6.00
2022-08-14T11:42:58.833Z,6.05
2022-08-14T11:45:00.791Z,3.53
2022-08-14T11:47:35.378Z,5.38
2022-08-14T11:50:36.901Z,4.57
2022-08-14T11:53:06.845Z,5.75
2022-08-14T11:55:39.586Z,6.20
2022-08-14T11:58:10.549Z,6.50
2022-08-14T12:00:59.955Z,4.53
2022-08-14T12:03:46.744Z,3.88
2022-08-14T12:06:29.125Z,4.45
2022-08-14T12:09:03.433Z,6.15
2022-08-14T12:11:44.181Z,4.15
2022-08-14T12:14:30.532Z,3.92
2022-08-14T12:17:12.969Z,6.20
2022-08-14T12:19:54.217Z,4.03
2022-08-14T12:22:34.506Z,4.05
2022-08-14T12:25:08.444Z,4.80
2022-08-14T12:27:52.493Z,7.72
2022-08-14T12:30:53.682Z,7.10
2022-08-14T12:33:33.854Z,4.55
2022-08-14T12:36:06.033Z,6.45
2022-08-14T12:38:45.708Z,4.75
2022-08-14T12:41:21.101Z,4.40
2022-08-14T12:44:01.758Z,8.32
2022-08-14T12:46:36.343Z,5.75
2022-08-14T12:49:17.021Z,4.93
2022-08-14T12:51:55.966Z,4.47
2022-08-14T12:54:27.223Z,5.78
2022-08-14T12:57:08.027Z,4.45
2022-08-14T12:59:37.060Z,5.05
2022-08-14T13:02:26.428Z,11.10
2022-08-14T13:04:58.119Z,4.47
2022-08-14T13:07:32.012Z,5.25
2022-08-14T13:10:12.874Z,6.07
2022-08-14T13:13:11.988Z,3.88
2022-08-14T13:15:40.357Z,4.47
2022-08-14T13:18:11.484Z,4.50
2022-08-14T13:20:44.145Z,7.80
2022-08-14T13:23:19.656Z,4.25
2022-08-14T13:25:58.524Z,4.75
2022-08-14T13:28:32.653Z,8.93
2022-08-14T13:31:08.939Z,3.70
2022-08-14T13:33:40.912Z,7.50
2022-08-14T13:36:24.307Z,8.93
2022-08-14T13:39:00.706Z,5.30
2022-08-14T13:41:34.711Z,3.88
2022-08-14T13:44:04.127Z,5.55
2022-08-14T13:46:31.567Z,5.85
2022-08-14T13:48:59.802Z,3.63
2022-08-14T13:51:29.915Z,5.40
2022-08-14T13:54:09.920Z,4.10
2022-08-14T13:56:40.332Z,5.27
2022-08-14T13:59:08.818Z,6.03
2022-08-14T14:01:43.834Z,5.43
2022-08-14T14:04:19.213Z,5.85
2022-08-14T14:06:50.980Z,5.72
2022-08-14T14:09:32.480Z,5.32
2022-08-14T14:12:07.980Z,4.47
2022-08-14T14:14:59.021Z,4.32
2022-08-14T14:17:34.194Z,5.80
2022-08-14T14:20:04.416Z,6.15
2022-08-14T14:23:00.803Z,5.53
2022-08-14T14:25:22.023Z,5.45
2022-08-14T14:27:51.338Z,4.20
2022-08-14T14:30:52.126Z,4.32
2022-08-14T14:33:42.323Z,5.50
2022-08-14T14:36:01.677Z,5.28
2022-08-14T14:38:33.561Z,5.10
2022-08-14T14:41:02.561Z,6.18
2022-08-14T14:43:30.680Z,4.50
2022-08-14T14:45:58.519Z,5.07
2022-08-14T14:48:29.188Z,5.35
2022-08-14T14:51:01.447Z,4.85
2022-08-14T14:53:31.851Z,5.30
2022-08-14T14:56:50.317Z,4.75
2022-08-14T14:58:58.434Z,4.57
2022-08-14T15:01:26.573Z,4.25
2022-08-14T15:03:55.446Z,6.53
2022-08-14T15:06:30.415Z,5.20
2022-08-14T15:09:02.244Z,4.97
2022-08-14T15:11:33.299Z,8.57
2022-08-14T15:14:01.070Z,9.73
2022-08-14T15:16:29.257Z,6.63
2022-08-14T15:18:56.536Z,4.82
2022-08-14T15:21:25.073Z,5.63
2022-08-14T15:23:53.171Z,4.45
2022-08-14T15:26:30.976Z,4.60
2022-08-14T15:29:07.162Z,6.22
2022-08-14T15:31:37.567Z,7.10
2022-08-14T15:34:43.135Z,4.07
2022-08-14T15:37:02.160Z,5.55
2022-08-14T15:39:35.787Z,4.93
2022-08-14T15:42:09.300Z,6.75
2022-08-14T15:44:56.843Z,6.38
2022-08-14T15:47:28.318Z,6.75
2022-08-14T15:50:01.523Z,6.78
2022-08-14T15:52:34.622Z,7.82
2022-08-14T15:55:09.001Z,7.43
2022-08-14T15:57:37.032Z,6.05
2022-08-14T16:00:44.438Z,6.38
2022-08-14T16:03:18.095Z,6.32
2022-08-14T16:05:52.877Z,5.57
2022-08-14T16:08:29.304Z,6.28
2022-08-14T16:11:00.000Z,4.70
2022-08-14T16:13:39.511Z,5.63
2022-08-14T16:16:49.786Z,4.97
2022-08-14T16:19:09.993Z,6.55
2022-08-14T16:21:40.663Z,5.53
2022-08-14T16:24:28.078Z,5.15
2022-08-14T16:27:00.860Z,7.70
2022-08-14T16:29:33.023Z,4.55
2022-08-14T16:32:33.291Z,6.85
2022-08-14T16:34:54.869Z,4.85
2022-08-14T16:37:23.313Z,7.65
2022-08-14T16:39:59.315Z,8.15
2022-08-14T16:43:02.702Z,7.00
2022-08-14T16:45:18.631Z,5.45
2022-08-14T16:47:47.843Z,5.22
2022-08-14T16:53:07.365Z,7.22
2022-08-14T16:55:53.805Z,6.35
2022-08-14T16:58:28.950Z,6.40
2022-08-14T17:01:24.810Z,9.43
2022-08-14T17:04:06.589Z,5.45
2022-08-14T17:06:51.011Z,5.22
2022-08-14T17:09:27.991Z,5.28
2022-08-14T17:12:07.667Z,6.05
2022-08-14T17:15:10.553Z,5.63
2022-08-14T17:17:42.977Z,9.52
2022-08-14T17:21:01.771Z,6.20
2022-08-14T17:23:11.369Z,5.45
2022-08-14T17:25:39.704Z,8.98
2022-08-14T17:28:51.887Z,5.85
2022-08-14T17:31:08.019Z,10.55
2022-08-14T17:33:44.264Z,5.13
2022-08-14T17:36:22.871Z,8.00
2022-08-14T17:42:02.864Z,7.88
2022-08-14T17:44:33.674Z,8.27
2022-08-14T17:47:14.519Z,5.85
2022-08-14T17:49:47.493Z,7.25
2022-08-14T17:52:35.871Z,5.22
2022-08-14T17:55:12.740Z,7.10
2022-08-14T17:57:59.141Z,5.38
2022-08-14T18:00:26.599Z,8.85
2022-08-14T18:02:55.291Z,8.68
2022-08-14T18:06:09.861Z,7.28
2022-08-14T18:08:32.019Z,8.90
2022-08-14T18:11:00.242Z,8.60
2022-08-14T18:13:49.685Z,5.50
2022-08-14T18:16:20.356Z,9.82
2022-08-14T18:18:51.215Z,9.55
2022-08-14T18:21:42.399Z,6.60
2022-08-14T18:24:28.687Z,9.98
2022-08-14T18:27:06.825Z,7.68
2022-08-14T18:29:55.564Z,9.23
2022-08-14T18:32:32.070Z,8.10
2022-08-14T18:35:03.630Z,5.82
2022-08-14T18:37:39.783Z,10.45
2022-08-14T18:40:17.879Z,7.50
2022-08-14T18:43:02.168Z,9.32
2022-08-14T18:45:33.869Z,6.45
2022-08-14T18:48:18.531Z,7.38
2022-08-14T18:51:01.413Z,9.00
2022-08-14T18:53:34.304Z,6.38
2022-08-14T18:56:09.657Z,8.43
2022-08-14T18:58:58.676Z,9.68
2022-08-14T19:01:33.405Z,7.32
2022-08-14T19:04:02.421Z,8.40
2022-08-14T19:06:44.705Z,10.70
2022-08-14T19:09:50.806Z,8.20
2022-08-14T19:13:00.431Z,9.95
2022-08-14T19:15:31.343Z,7.82
2022-08-14T19:18:14.107Z,7.95
2022-08-14T19:21:13.524Z,8.55
2022-08-14T19:23:44.049Z,8.82
2022-08-14T19:26:36.075Z,12.75
2022-08-14T19:29:37.712Z,10.07
2022-08-14T19:32:36.512Z,9.47
2022-08-14T19:35:55.568Z,8.70
2022-08-14T19:38:44.216Z,10.20
2022-08-14T19:41:16.561Z,7.78
2022-08-14T19:43:56.110Z,7.53
2022-08-14T19:46:37.608Z,8.43
2022-08-14T19:49:05.934Z,9.07
2022-08-14T19:51:45.112Z,7.50
2022-08-14T19:54:13.866Z,7.88
2022-08-14T19:56:45.123Z,8.23
2022-08-14T19:59:18.283Z,7.63
2022-08-14T20:01:49.678Z,11.90
2022-08-14T20:04:46.022Z,9.33
2022-08-14T20:07:59.001Z,13.43
2022-08-14T20:11:03.118Z,10.23
2022-08-14T20:13:14.833Z,8.88
2022-08-14T20:15:51.503Z,9.23
2022-08-14T20:18:49.211Z,10.50
2022-08-14T20:21:14.906Z,9.35
2022-08-14T20:23:42.589Z,7.45
2022-08-14T20:26:31.308Z,7.70
2022-08-14T20:29:05.133Z,8.00
2022-08-14T20:31:37.891Z,7.80
2022-08-14T20:34:24.432Z,10.05
2022-08-14T20:39:33.978Z,10.02
2022-08-14T20:42:33.450Z,7.90
2022-08-14T20:45:19.765Z,8.30
2022-08-14T20:47:58.478Z,8.95
2022-08-14T20:50:29.741Z,10.52
2022-08-14T20:53:05.670Z,8.48
2022-08-14T20:55:41.209Z,10.07
2022-08-14T20:58:09.860Z,8.98
2022-08-14T21:01:19.779Z,8.05
2022-08-14T21:03:58.394Z,11.77
2022-08-14T21:06:31.096Z,8.82
2022-08-14T21:09:19.280Z,10.75
2022-08-14T21:12:02.534Z,11.43
2022-08-14T21:14:30.544Z,9.55
2022-08-14T21:17:02.634Z,11.90
2022-08-14T21:19:30.201Z,10.65
2022-08-14T21:22:01.882Z,18.02
2022-08-14T21:24:40.182Z,12.05
2022-08-14T21:27:20.079Z,9.20
2022-08-14T21:29:55.192Z,10.02
2022-08-14T21:32:35.091Z,11.00
2022-08-14T21:35:08.057Z,14.57
2022-08-14T21:37:43.965Z,9.55
2022-08-14T21:40:39.934Z,14.73
2022-08-14T21:43:17.198Z,12.52
2022-08-14T21:45:53.558Z,9.75
2022-08-14T21:48:26.290Z,9.77
2022-08-14T21:50:59.955Z,10.20
2022-08-14T21:53:31.179Z,14.10
2022-08-14T21:55:59.202Z,9.63
2022-08-14T21:58:51.415Z,10.23
2022-08-14T22:01:19.337Z,10.13
2022-08-14T22:03:55.479Z,9.55
2022-08-14T22:06:28.546Z,10.95
2022-08-14T22:08:58.317Z,16.58
2022-08-14T22:11:27.333Z,10.07
2022-08-14T22:14:02.102Z,10.65
2022-08-14T22:17:03.459Z,11.05
2022-08-14T22:19:47.534Z,12.52
2022-08-14T22:22:26.155Z,12.27
2022-08-14T22:25:00.267Z,11.90
2022-08-14T22:27:32.326Z,12.73
2022-08-14T22:30:00.981Z,12.27
2022-08-14T22:32:56.751Z,12.20
2022-08-14T22:35:16.631Z,13.95
2022-08-14T22:37:45.094Z,13.63
2022-08-14T22:40:56.852Z,13.50
2022-08-14T22:43:08.298Z,15.35
2022-08-14T22:45:38.048Z,13.90
2022-08-14T22:48:10.762Z,12.38
2022-08-14T22:50:53.221Z,14.32
2022-08-14T22:53:21.710Z,15.20
2022-08-14T22:55:52.065Z,13.88
2022-08-14T22:58:30.299Z,14.48
2022-08-14T23:01:01.191Z,12.57
2022-08-14T23:03:30.380Z,13.13
2022-08-14T23:06:02.249Z,13.18
2022-08-14T23:08:58.490Z,14.02
2022-08-14T23:11:17.240Z,11.75
2022-08-14T23:13:46.292Z,12.40
2022-08-14T23:16:20.140Z,13.27
2022-08-14T23:18:54.131Z,12.60
2022-08-14T23:21:24.146Z,13.10
2022-08-14T23:23:55.026Z,14.50
2022-08-14T23:26:48.673Z,14.13
2022-08-14T23:29:11.959Z,14.30
2022-08-14T23:31:40.396Z,15.63
2022-08-14T23:34:13.479Z,13.23
2022-08-14T23:36:54.619Z,12.70
2022-08-14T23:39:31.405Z,12.77
2022-08-14T23:42:02.490Z,14.63
2022-08-14T23:47:05.521Z,13.35
2022-08-14T23:49:56.435Z,13.90
2022-08-14T23:52:55.440Z,10.93
2022-08-14T23:55:11.038Z,9.82
2022-08-14T23:57:43.701Z,11.32
